createdAt,value
2023-04-08T14:02:22.043Z,5.73
2023-04-08T14:04:49.541Z,5.83
2023-04-08T14:07:16.788Z,5.80
2023-04-08T14:09:44.092Z,5.03
2023-04-08T14:12:11.448Z,9.57
2023-04-08T14:14:38.716Z,10.30
2023-04-08T14:17:06.011Z,6.20
2023-04-08T14:19:33.353Z,5.67
2023-04-08T14:22:01.247Z,7.20
2023-04-08T14:24:28.363Z,5.67
2023-04-08T14:26:55.793Z,9.40
2023-04-08T14:29:23.064Z,7.33
2023-04-08T14:31:50.333Z,5.83
2023-04-08T14:34:17.534Z,6.70
2023-04-08T14:36:45.636Z,7.77
2023-04-08T14:39:13.871Z,7.27
2023-04-08T14:41:41.623Z,7.33
2023-04-08T14:44:08.755Z,6.70
2023-04-08T14:46:36.032Z,6.90
2023-04-08T14:49:03.328Z,7.80
2023-04-08T14:51:31.773Z,8.07
2023-04-08T14:53:59.211Z,8.90
2023-04-08T14:56:26.590Z,9.03
2023-04-08T14:58:53.763Z,9.00
2023-04-08T15:01:21.104Z,8.87
2023-04-08T15:03:48.413Z,9.77
2023-04-08T15:06:17.951Z,9.87
2023-04-08T15:08:46.280Z,10.87
2023-04-08T15:11:13.458Z,8.73
2023-04-08T15:13:40.878Z,9.50
2023-04-08T15:16:08.270Z,8.10
2023-04-08T15:18:36.395Z,11.50
2023-04-08T15:21:03.712Z,9.97
2023-04-08T15:23:31.725Z,9.50
2023-04-08T15:25:58.970Z,9.30
2023-04-08T15:30:45.291Z,11.23
2023-04-08T15:33:12.572Z,10.93
2023-04-08T15:35:40.120Z,9.67
2023-04-08T15:38:07.949Z,10.60
2023-04-08T15:40:35.260Z,8.90
2023-04-08T15:45:15.475Z,10.33
2023-04-08T15:47:42.731Z,12.50
2023-04-08T15:50:10.538Z,12.63
2023-04-08T15:52:37.722Z,14.47
2023-04-08T15:55:05.333Z,14.23
2023-04-08T15:57:32.744Z,16.63
2023-04-08T16:00:00.093Z,13.33
2023-04-08T16:02:28.234Z,13.20
2023-04-08T16:04:55.694Z,11.77
2023-04-08T16:07:22.859Z,11.97
2023-04-08T16:09:50.092Z,12.80
2023-04-08T16:12:17.320Z,12.27
2023-04-08T16:14:44.529Z,11.27
2023-04-08T16:17:12.280Z,11.67
2023-04-08T16:19:39.569Z,12.40
2023-04-08T16:22:07.283Z,13.27
2023-04-08T16:24:37.166Z,12.63
2023-04-08T16:27:04.869Z,11.73
2023-04-08T16:29:32.736Z,13.17
2023-04-08T16:32:00.093Z,13.40
2023-04-08T16:34:28.393Z,13.30
2023-04-08T16:36:55.690Z,14.43
2023-04-08T16:39:22.950Z,14.13
2023-04-08T16:41:50.242Z,13.80
2023-04-08T16:44:17.433Z,15.50
2023-04-08T16:46:44.797Z,14.33
2023-04-08T16:49:14.495Z,13.50
2023-04-08T16:51:42.926Z,14.43
2023-04-08T16:54:10.123Z,16.40
2023-04-08T16:56:37.334Z,16.33
2023-04-08T16:59:04.646Z,15.00
2023-04-08T17:01:32.125Z,14.97
2023-04-08T17:03:59.629Z,16.30
2023-04-08T17:06:27.761Z,15.03
2023-04-08T17:08:54.965Z,18.37
2023-04-08T17:13:50.561Z,19.27
2023-04-08T17:16:18.767Z,19.37
2023-04-08T17:18:46.597Z,17.10
2023-04-08T17:23:35.938Z,17.93
2023-04-08T17:26:07.914Z,18.10
2023-04-08T17:28:35.897Z,20.67
2023-04-08T17:31:03.172Z,18.83
2023-04-08T17:33:30.559Z,19.67
2023-04-08T17:35:57.842Z,21.20
2023-04-08T17:38:25.086Z,23.17
2023-04-08T17:40:52.329Z,22.83
2023-04-08T17:43:19.564Z,24.20
2023-04-08T17:45:47.134Z,26.00
2023-04-08T17:48:14.714Z,26.80
2023-04-08T17:50:41.962Z,26.97
2023-04-08T17:53:09.356Z,24.67
2023-04-08T17:55:36.599Z,23.87
2023-04-08T17:58:04.629Z,21.37
2023-04-08T18:00:31.861Z,21.47
2023-04-08T18:02:59.216Z,23.83
2023-04-08T18:05:27.447Z,24.60
2023-04-08T18:07:54.640Z,22.40
2023-04-08T18:10:23.330Z,24.60
2023-04-08T18:12:54.763Z,21.20
2023-04-08T18:15:31.257Z,22.27
2023-04-08T18:17:58.581Z,23.23
2023-04-08T18:20:25.916Z,24.90
2023-04-08T18:22:53.048Z,27.27
2023-04-08T18:25:22.785Z,28.67
2023-04-08T18:27:50.569Z,28.80
2023-04-08T18:30:17.919Z,27.17
2023-04-08T18:32:45.091Z,24.63
2023-04-08T18:35:12.320Z,25.77
2023-04-08T18:37:39.530Z,21.93
2023-04-08T18:40:08.163Z,23.60
2023-04-08T18:42:35.679Z,20.97
2023-04-08T18:45:02.978Z,21.07
2023-04-08T18:47:30.221Z,20.97
2023-04-08T18:49:57.996Z,19.03
2023-04-08T18:52:25.451Z,22.07
2023-04-08T18:54:53.041Z,22.80
2023-04-08T18:57:20.356Z,22.40
2023-04-08T18:59:48.720Z,23.83
2023-04-08T19:02:16.812Z,19.13
2023-04-08T19:04:44.269Z,21.40
2023-04-08T19:07:12.338Z,22.13
2023-04-08T19:09:40.357Z,20.57
2023-04-08T19:12:07.518Z,19.10
2023-04-08T19:14:34.764Z,17.97
2023-04-08T19:17:01.957Z,18.87
2023-04-08T19:19:29.232Z,20.23
2023-04-08T19:21:56.412Z,18.07
2023-04-08T19:24:23.724Z,19.70
2023-04-08T19:26:53.142Z,19.63
2023-04-08T19:29:23.156Z,17.80
2023-04-08T19:31:50.566Z,19.33
2023-04-08T19:34:17.774Z,20.50
2023-04-08T19:36:44.978Z,35.50
2023-04-08T19:39:12.235Z,37.93
2023-04-08T19:41:39.409Z,40.60
2023-04-08T19:44:06.741Z,38.37
2023-04-08T19:46:34.159Z,37.83
2023-04-08T19:49:01.642Z,32.77
2023-04-08T19:51:29.608Z,24.37
2023-04-08T19:53:57.551Z,23.50
2023-04-08T19:56:25.812Z,25.30
2023-04-08T19:58:53.499Z,20.37
2023-04-08T20:01:21.563Z,20.17
2023-04-08T20:03:50.786Z,21.57
2023-04-08T20:06:19.757Z,21.97
2023-04-08T20:08:47.084Z,25.77
2023-04-08T20:11:14.310Z,25.23
2023-04-08T20:13:41.877Z,23.97
2023-04-08T20:16:09.204Z,25.10
2023-04-08T20:18:36.664Z,26.37
2023-04-08T20:21:04.819Z,36.07
2023-04-08T20:23:32.107Z,39.23
2023-04-08T20:25:59.866Z,27.03
2023-04-08T20:28:27.368Z,29.93
2023-04-08T20:30:54.769Z,24.20
2023-04-08T20:33:22.099Z,24.97
2023-04-08T20:35:50.654Z,22.03
2023-04-08T20:38:17.949Z,21.63
2023-04-08T20:40:46.097Z,21.13
2023-04-08T20:43:13.406Z,22.60
2023-04-08T20:45:40.647Z,22.67
2023-04-08T20:48:07.944Z,24.53
2023-04-08T20:50:35.555Z,22.07
2023-04-08T20:53:03.260Z,26.57
2023-04-08T20:55:30.869Z,25.50
2023-04-08T20:57:58.165Z,28.53
2023-04-08T21:00:25.254Z,28.43
2023-04-08T21:02:53.203Z,26.57
2023-04-08T21:05:20.523Z,26.67
2023-04-08T21:07:47.760Z,24.63
2023-04-08T21:10:16.200Z,26.80
2023-04-08T21:12:45.372Z,26.87
2023-04-08T21:15:12.565Z,24.40
2023-04-08T21:17:39.917Z,23.67
2023-04-08T21:20:08.008Z,20.53
2023-04-08T21:22:35.401Z,22.43
2023-04-08T21:25:02.635Z,23.47
2023-04-08T21:27:29.847Z,24.33
2023-04-08T21:29:56.989Z,22.67
2023-04-08T21:32:24.461Z,24.27
2023-04-08T21:34:55.363Z,25.77
2023-04-08T21:37:25.174Z,25.87
2023-04-08T21:39:53.889Z,22.73
2023-04-08T21:42:22.954Z,22.73
2023-04-08T21:44:50.197Z,23.73
2023-04-08T21:47:17.953Z,24.10
2023-04-08T21:49:45.642Z,22.80
2023-04-08T21:52:12.870Z,22.60
2023-04-08T21:54:40.184Z,21.57
2023-04-08T21:57:07.729Z,21.17
2023-04-08T21:59:35.071Z,21.27
2023-04-08T22:02:03.390Z,22.00
2023-04-08T22:04:30.957Z,21.50
2023-04-08T22:06:58.499Z,20.00
2023-04-08T22:09:25.681Z,23.13
2023-04-08T22:11:53.002Z,20.83
2023-04-08T22:14:20.416Z,22.67
2023-04-08T22:16:47.736Z,25.87
2023-04-08T22:19:15.736Z,22.63
2023-04-08T22:21:42.968Z,23.80
2023-04-08T22:24:10.820Z,25.03
2023-04-08T22:26:38.045Z,21.73
2023-04-08T22:29:05.866Z,22.43
2023-04-08T22:31:33.773Z,20.53
2023-04-08T22:34:01.202Z,22.33
2023-04-08T22:36:28.817Z,21.37
2023-04-08T22:38:56.041Z,26.40
2023-04-08T22:41:25.979Z,24.50
2023-04-08T22:43:53.174Z,23.23
2023-04-08T22:46:20.568Z,26.27
2023-04-08T22:48:49.571Z,25.07
2023-04-08T22:51:17.155Z,30.10
2023-04-08T22:53:44.590Z,33.20
2023-04-08T22:56:11.945Z,29.77
2023-04-08T22:58:39.264Z,29.70
2023-04-08T23:01:14.364Z,26.80
2023-04-08T23:03:42.118Z,29.80
2023-04-08T23:06:09.445Z,28.73
2023-04-08T23:08:36.637Z,26.63
2023-04-08T23:11:03.809Z,28.07
2023-04-08T23:13:31.284Z,27.47
2023-04-08T23:15:59.050Z,26.73
2023-04-08T23:18:26.559Z,29.17
2023-04-08T23:20:54.793Z,29.30
2023-04-08T23:23:24.415Z,28.03
2023-04-08T23:25:54.953Z,26.77
2023-04-08T23:28:24.058Z,26.60
2023-04-08T23:30:51.355Z,29.07
2023-04-08T23:33:18.607Z,27.47
2023-04-08T23:35:46.503Z,26.77
2023-04-08T23:38:13.960Z,27.73
2023-04-08T23:40:41.323Z,28.83
2023-04-08T23:43:08.439Z,27.60
2023-04-08T23:45:35.897Z,29.27
2023-04-08T23:48:03.124Z,26.43
2023-04-08T23:50:30.554Z,26.13
2023-04-08T23:52:59.403Z,24.67
2023-04-08T23:55:26.749Z,26.67
2023-04-08T23:57:53.975Z,26.87
